Time;durP1;ratioP1;P1;durP2;ratioP2;P2;SDS_P1;SDS_P2;PMS_P1;PMS_P2;Temp;Humidity;BMP_temperature;BMP_pressure;BME280_temperature;BME280_humidity;BME280_pressure;Samples;Min_cycle;Max_cycle;Signal;HPM_P1;HPM_P2
2023/06/10 00:00:06;;;;;;;3.70;3.20;;;19.40;90.00;;;;;;5076011;28;20566;-86
2023/06/10 00:02:33;;;;;;;6.30;3.40;;;19.30;90.40;;;;;;5076488;28;20457;-85
2023/06/10 00:05:00;;;;;;;3.40;3.10;;;19.20;90.60;;;;;;5076014;28;20449;-85
2023/06/10 00:07:27;;;;;;;3.93;3.60;;;19.20;90.70;;;;;;5076470;28;20452;-85
2023/06/10 00:09:55;;;;;;;5.90;3.80;;;19.10;90.70;;;;;;5075965;28;20463;-85
2023/06/10 00:12:21;;;;;;;7.37;3.97;;;19.10;90.20;;;;;;5076332;28;20453;-85
2023/06/10 00:14:51;;;;;;;3.27;2.83;;;19.10;90.40;;;;;;5076198;28;20445;-85
2023/06/10 00:17:18;;;;;;;3.60;3.30;;;19.10;91.00;;;;;;5076260;28;20475;-85
2023/06/10 00:19:46;;;;;;;4.03;3.50;;;19.10;91.20;;;;;;5076282;28;20558;-85
2023/06/10 00:22:14;;;;;;;6.37;3.80;;;19.00;91.60;;;;;;5076002;28;20526;-85
2023/06/10 00:24:41;;;;;;;3.83;3.50;;;19.00;91.90;;;;;;5076084;28;20444;-85
2023/06/10 00:27:08;;;;;;;4.00;3.53;;;18.90;91.90;;;;;;5075938;28;20472;-84
2023/06/10 00:29:35;;;;;;;7.03;3.37;;;18.90;92.40;;;;;;5075633;28;20984;-85
2023/06/10 00:32:04;;;;;;;4.33;3.23;;;18.80;92.50;;;;;;5076054;28;20451;-85
2023/06/10 00:34:32;;;;;;;4.10;3.00;;;18.80;92.90;;;;;;5076047;28;20494;-85
2023/06/10 00:36:59;;;;;;;3.63;3.13;;;18.70;92.80;;;;;;5075458;28;20975;-85
2023/06/10 00:39:25;;;;;;;4.77;3.17;;;18.60;93.00;;;;;;5075791;28;20449;-85
2023/06/10 00:41:52;;;;;;;5.57;3.97;;;18.50;93.50;;;;;;5075194;28;20480;-84
2023/06/10 00:44:19;;;;;;;3.77;3.47;;;18.50;93.40;;;;;;5075033;28;20452;-85
2023/06/10 00:46:46;;;;;;;3.77;3.47;;;18.40;93.70;;;;;;5075625;28;20475;-85
2023/06/10 00:49:15;;;;;;;6.47;3.30;;;18.40;93.80;;;;;;5075727;28;20448;-85
2023/06/10 00:51:42;;;;;;;5.63;4.00;;;18.40;94.00;;;;;;5076373;28;20441;-85
2023/06/10 00:54:08;;;;;;;5.57;3.70;;;18.30;94.20;;;;;;5075374;28;20971;-85
2023/06/10 00:56:37;;;;;;;5.60;3.57;;;18.20;94.30;;;;;;5075671;28;20856;-84
2023/06/10 00:59:04;;;;;;;3.33;3.00;;;18.20;94.60;;;;;;5075203;28;20437;-85
2023/06/10 01:01:32;;;;;;;4.23;3.83;;;18.10;94.90;;;;;;5075364;28;20476;-85
2023/06/10 01:03:59;;;;;;;5.77;4.43;;;18.10;95.20;;;;;;5075436;28;20453;-85
2023/06/10 01:06:37;;;;;;;4.97;4.07;;;18.00;95.70;;;;;;5075317;28;20590;-85
2023/06/10 01:09:14;;;;;;;4.57;3.80;;;18.00;95.90;;;;;;5075251;28;20439;-85
2023/06/10 01:11:48;;;;;;;4.73;2.93;;;18.00;95.80;;;;;;5074966;28;20966;-85
2023/06/10 01:14:15;;;;;;;3.93;3.53;;;18.00;95.50;;;;;;5074837;28;20897;-84
2023/06/10 01:16:42;;;;;;;6.20;3.63;;;17.90;96.30;;;;;;5075029;28;20468;-85
2023/06/10 01:19:09;;;;;;;4.23;3.50;;;18.10;95.80;;;;;;5075062;28;20448;-85
2023/06/10 01:21:39;;;;;;;3.57;3.27;;;18.10;95.90;;;;;;5074529;28;21065;-85
2023/06/10 01:24:08;;;;;;;3.10;2.90;;;18.00;95.90;;;;;;5075090;28;20433;-85
2023/06/10 01:26:36;;;;;;;3.10;2.80;;;18.00;96.30;;;;;;5074519;28;21006;-85
2023/06/10 01:29:08;;;;;;;4.87;3.70;;;18.00;96.70;;;;;;5074717;28;20536;-84
2023/06/10 01:31:43;;;;;;;3.70;3.37;;;17.90;96.90;;;;;;5074899;28;20448;-85
2023/06/10 01:34:13;;;;;;;5.83;3.57;;;17.90;97.40;;;;;;5074678;28;20523;-85
2023/06/10 01:36:42;;;;;;;5.07;3.67;;;17.80;96.80;;;;;;5074929;28;20460;-85
2023/06/10 01:39:11;;;;;;;4.60;3.03;;;17.80;97.40;;;;;;5074238;28;20928;-85
2023/06/10 01:41:38;;;;;;;3.60;2.90;;;17.80;98.00;;;;;;5074456;28;20492;-85
2023/06/10 01:44:05;;;;;;;3.37;3.07;;;17.80;98.50;;;;;;5074254;28;20825;-85
2023/06/10 01:46:32;;;;;;;5.33;2.83;;;17.80;98.60;;;;;;5074401;28;20469;-85
2023/06/10 01:48:59;;;;;;;3.97;2.60;;;17.80;98.80;;;;;;5074016;28;20449;-85
2023/06/10 01:51:26;;;;;;;4.00;3.30;;;17.70;98.80;;;;;;5074439;28;20438;-85
2023/06/10 01:53:54;;;;;;;2.90;2.70;;;17.70;98.70;;;;;;5074122;28;20456;-85
2023/06/10 01:56:21;;;;;;;4.10;3.70;;;17.70;98.90;;;;;;5074076;28;20480;-85
2023/06/10 01:58:47;;;;;;;3.37;3.07;;;17.70;99.40;;;;;;5073927;28;20983;-85
2023/06/10 02:01:15;;;;;;;3.60;2.93;;;17.60;99.80;;;;;;5074118;28;20499;-85
2023/06/10 02:03:42;;;;;;;5.87;4.10;;;17.60;99.90;;;;;;5074177;28;20449;-85
2023/06/10 02:06:08;;;;;;;4.27;3.53;;;17.50;99.80;;;;;;5073880;28;20461;-85
2023/06/10 02:08:35;;;;;;;5.07;3.13;;;17.40;99.80;;;;;;5073940;28;20449;-83
2023/06/10 02:11:03;;;;;;;7.33;3.97;;;17.40;99.90;;;;;;5074091;28;20512;-85
2023/06/10 02:13:30;;;;;;;5.00;4.27;;;17.30;99.90;;;;;;5074101;28;20452;-85
2023/06/10 02:15:57;;;;;;;3.93;3.53;;;17.30;99.90;;;;;;5073604;28;20468;-85
2023/06/10 02:18:23;;;;;;;5.47;3.83;;;17.20;99.90;;;;;;5073941;28;20435;-85
2023/06/10 02:20:50;;;;;;;3.70;2.70;;;17.20;99.90;;;;;;5073564;28;20492;-85
2023/06/10 02:23:17;;;;;;;6.10;4.00;;;17.10;99.90;;;;;;5073888;28;20445;-85
2023/06/10 02:25:44;;;;;;;4.23;3.50;;;17.10;99.90;;;;;;5074050;28;20465;-85
2023/06/10 02:28:12;;;;;;;4.03;3.60;;;17.10;99.90;;;;;;5073910;28;20449;-84
2023/06/10 02:30:40;;;;;;;4.20;3.50;;;17.00;99.90;;;;;;5073682;28;20448;-85
2023/06/10 02:33:09;;;;;;;3.10;2.80;;;17.00;99.90;;;;;;5073768;28;20449;-85
2023/06/10 02:35:36;;;;;;;5.17;4.53;;;16.90;99.90;;;;;;5073541;28;20906;-85
2023/06/10 02:38:03;;;;;;;5.30;4.30;;;16.80;99.90;;;;;;5073361;28;20445;-85
2023/06/10 02:40:30;;;;;;;4.27;3.17;;;16.80;99.90;;;;;;5073630;28;20448;-85
2023/06/10 02:42:58;;;;;;;4.13;3.33;;;16.80;99.90;;;;;;5073561;28;20457;-85
2023/06/10 02:45:26;;;;;;;4.87;3.97;;;16.70;99.90;;;;;;5073631;28;20825;-85
2023/06/10 02:47:53;;;;;;;3.57;3.10;;;16.70;99.90;;;;;;5073627;28;20449;-85
2023/06/10 02:50:20;;;;;;;6.00;3.67;;;16.70;99.90;;;;;;5073590;28;20459;-85
2023/06/10 02:52:46;;;;;;;4.40;3.20;;;16.60;99.90;;;;;;5073512;28;20449;-85
2023/06/10 02:55:13;;;;;;;3.90;3.50;;;16.50;99.90;;;;;;5073499;28;20457;-85
2023/06/10 02:57:40;;;;;;;6.93;3.53;;;16.50;99.90;;;;;;5073320;28;20442;-85
2023/06/10 03:00:10;;;;;;;3.47;3.17;;;16.50;99.90;;;;;;5073533;28;20503;-85
2023/06/10 03:02:39;;;;;;;7.63;3.80;;;16.50;99.90;;;;;;5073340;28;20492;-85
2023/06/10 03:05:09;;;;;;;5.33;3.90;;;16.40;99.90;;;;;;5073406;28;20448;-85
2023/06/10 03:07:36;;;;;;;4.10;3.17;;;16.40;99.90;;;;;;5077007;28;20994;-85
2023/06/10 03:10:03;;;;;;;3.67;3.13;;;16.30;99.90;;;;;;5077621;28;20451;-85
2023/06/10 03:12:30;;;;;;;3.73;3.20;;;16.40;99.90;;;;;;5077442;28;20456;-85
2023/06/10 03:14:57;;;;;;;3.33;2.27;;;16.40;99.90;;;;;;5076962;28;20804;-85
2023/06/10 03:17:23;;;;;;;3.40;3.10;;;16.30;99.90;;;;;;5077233;28;20469;-85
2023/06/10 03:19:52;;;;;;;4.23;3.70;;;16.30;99.90;;;;;;5077438;28;20920;-85
2023/06/10 03:22:18;;;;;;;3.30;2.70;;;16.30;99.90;;;;;;5077239;28;20841;-85
2023/06/10 03:24:46;;;;;;;4.80;3.67;;;16.20;99.90;;;;;;5077289;28;20457;-85
2023/06/10 03:27:13;;;;;;;3.50;3.20;;;16.20;99.90;;;;;;5077011;28;20561;-85
2023/06/10 03:29:40;;;;;;;3.30;2.87;;;16.20;99.90;;;;;;5077259;28;20527;-85
2023/06/10 03:32:07;;;;;;;4.83;3.00;;;16.20;99.90;;;;;;5077421;28;20436;-85
2023/06/10 03:34:34;;;;;;;4.10;3.40;;;16.20;99.90;;;;;;5077084;28;20445;-85
2023/06/10 03:37:02;;;;;;;3.50;2.97;;;16.30;99.90;;;;;;5077034;28;20510;-85
2023/06/10 03:39:29;;;;;;;3.17;2.53;;;16.30;99.90;;;;;;5076693;28;20459;-85
2023/06/10 03:41:57;;;;;;;4.53;3.90;;;16.20;99.90;;;;;;5076529;28;20472;-85
2023/06/10 03:44:23;;;;;;;4.03;2.90;;;16.30;99.90;;;;;;5076695;28;20944;-85
2023/06/10 03:46:50;;;;;;;4.10;3.70;;;16.20;99.90;;;;;;5076790;28;20460;-85
2023/06/10 03:49:17;;;;;;;5.70;4.30;;;16.30;99.90;;;;;;5076852;28;20441;-85
2023/06/10 03:51:44;;;;;;;5.37;4.00;;;16.30;99.90;;;;;;5076918;28;20451;-85
2023/06/10 03:54:12;;;;;;;5.60;3.70;;;16.30;99.90;;;;;;5077178;28;20441;-85
2023/06/10 03:56:40;;;;;;;9.50;2.80;;;16.30;99.90;;;;;;5076698;28;20468;-85
2023/06/10 03:59:07;;;;;;;4.10;3.43;;;16.30;99.90;;;;;;5076718;28;20825;-85
2023/06/10 04:01:35;;;;;;;4.33;3.23;;;16.30;99.90;;;;;;5076666;28;20481;-85
2023/06/10 04:04:02;;;;;;;5.20;3.60;;;16.30;99.90;;;;;;5076527;28;20484;-85
2023/06/10 04:06:29;;;;;;;6.30;3.70;;;16.40;99.90;;;;;;5076582;28;20804;-85
2023/06/10 04:08:56;;;;;;;3.87;3.57;;;16.40;99.90;;;;;;5076546;28;20788;-85
2023/06/10 04:11:25;;;;;;;6.60;4.33;;;16.40;99.90;;;;;;5076612;28;20471;-85
2023/06/10 04:13:52;;;;;;;4.83;3.80;;;16.40;99.90;;;;;;5076175;28;20940;-86
2023/06/10 04:16:19;;;;;;;3.70;3.43;;;16.40;99.90;;;;;;5076320;28;20472;-85
2023/06/10 04:18:45;;;;;;;9.03;4.10;;;16.50;99.90;;;;;;5076062;28;20862;-85
2023/06/10 04:21:12;;;;;;;5.20;4.40;;;16.50;99.90;;;;;;5075631;28;21014;-85
2023/06/10 04:23:39;;;;;;;4.50;3.43;;;16.50;99.90;;;;;;5076410;28;20523;-85
2023/06/10 04:26:07;;;;;;;5.80;3.80;;;16.60;99.90;;;;;;5076102;28;20907;-85
2023/06/10 04:28:36;;;;;;;5.77;3.53;;;16.60;99.90;;;;;;5076676;28;20449;-85
2023/06/10 04:31:03;;;;;;;4.07;3.50;;;16.70;99.90;;;;;;5075997;28;20460;-85
2023/06/10 04:33:30;;;;;;;6.27;3.57;;;16.70;99.90;;;;;;5075775;28;20444;-85
2023/06/10 04:35:57;;;;;;;8.30;3.37;;;16.80;99.90;;;;;;5075859;28;20544;-85
2023/06/10 04:38:24;;;;;;;6.87;3.90;;;16.80;99.90;;;;;;5075835;28;20455;-85
2023/06/10 04:40:51;;;;;;;3.43;3.00;;;16.80;99.90;;;;;;5075931;28;20444;-85
2023/06/10 04:43:18;;;;;;;4.07;2.33;;;16.90;99.90;;;;;;5075856;28;20542;-85
2023/06/10 04:45:46;;;;;;;4.20;3.37;;;17.10;99.90;;;;;;5075814;28;20478;-85
2023/06/10 04:48:13;;;;;;;4.73;3.97;;;17.10;99.90;;;;;;5075566;28;20547;-86
2023/06/10 04:50:40;;;;;;;5.00;2.80;;;17.10;99.90;;;;;;5075918;28;20448;-85
2023/06/10 04:53:07;;;;;;;4.50;3.33;;;17.10;99.90;;;;;;5075450;28;20448;-83
2023/06/10 04:55:34;;;;;;;2.83;2.60;;;17.20;99.90;;;;;;5075534;28;20469;-86
2023/06/10 04:58:00;;;;;;;3.70;3.30;;;17.20;99.90;;;;;;5075528;28;20498;-86
2023/06/10 05:00:27;;;;;;;3.77;3.07;;;17.30;99.90;;;;;;5075670;28;20453;-86
2023/06/10 05:02:55;;;;;;;5.93;3.70;;;17.40;99.90;;;;;;5075747;28;20473;-85
2023/06/10 05:05:22;;;;;;;3.27;2.90;;;17.50;99.90;;;;;;5075489;28;20473;-85
2023/06/10 05:07:49;;;;;;;5.57;3.53;;;17.60;99.90;;;;;;5075125;28;20445;-85
2023/06/10 05:10:16;;;;;;;4.30;2.87;;;17.70;99.90;;;;;;5075431;28;20457;-85
2023/06/10 05:12:43;;;;;;;4.10;3.33;;;17.70;99.90;;;;;;5075621;28;20445;-86
2023/06/10 05:15:11;;;;;;;3.33;3.00;;;17.80;99.90;;;;;;5075603;28;20452;-86
2023/06/10 05:17:37;;;;;;;3.40;3.10;;;17.80;99.90;;;;;;5075818;28;20460;-85
2023/06/10 05:20:08;;;;;;;4.20;3.33;;;17.90;99.90;;;;;;5075387;28;20444;-85
2023/06/10 05:22:35;;;;;;;3.37;3.07;;;18.00;99.90;;;;;;5074975;28;20872;-85
2023/06/10 05:25:02;;;;;;;3.73;2.60;;;18.00;99.90;;;;;;5075185;28;20448;-85
2023/06/10 05:27:29;;;;;;;3.00;2.63;;;18.20;99.90;;;;;;5075318;28;20495;-85
2023/06/10 05:29:56;;;;;;;3.60;2.60;;;18.20;99.90;;;;;;5074568;28;20441;-86
2023/06/10 05:32:23;;;;;;;5.10;2.90;;;18.30;99.90;;;;;;5074886;28;20444;-86
2023/06/10 05:34:49;;;;;;;4.17;2.83;;;18.40;99.90;;;;;;5075071;28;20452;-86
2023/06/10 05:37:17;;;;;;;3.40;2.27;;;18.40;99.90;;;;;;5075022;28;20464;-86
2023/06/10 05:39:44;;;;;;;3.40;2.80;;;18.50;99.90;;;;;;5074715;28;20952;-84
2023/06/10 05:42:11;;;;;;;3.70;2.50;;;18.60;99.90;;;;;;5074481;28;21042;-85
2023/06/10 05:44:38;;;;;;;3.53;3.10;;;18.70;99.90;;;;;;5075049;28;20441;-85
2023/06/10 05:47:05;;;;;;;3.03;2.20;;;18.80;99.90;;;;;;5074415;28;20474;-85
2023/06/10 05:49:32;;;;;;;3.23;2.17;;;19.00;99.90;;;;;;5074803;28;20536;-85
2023/06/10 05:51:59;;;;;;;3.57;2.27;;;19.10;99.90;;;;;;5074880;28;20447;-86
2023/06/10 05:54:27;;;;;;;2.80;2.47;;;19.20;99.90;;;;;;5074902;28;20456;-86
2023/06/10 05:56:54;;;;;;;3.50;2.53;;;19.40;99.90;;;;;;5074375;28;20988;-85
2023/06/10 05:59:22;;;;;;;2.80;2.27;;;19.60;99.90;;;;;;5074633;28;20480;-85
2023/06/10 06:01:49;;;;;;;2.90;2.00;;;19.80;99.90;;;;;;5074400;28;20453;-85
2023/06/10 06:04:16;;;;;;;2.00;1.90;;;19.90;99.90;;;;;;5075043;28;20448;-85
2023/06/10 06:06:43;;;;;;;4.53;2.60;;;20.00;99.90;;;;;;5075748;28;20472;-85
2023/06/10 06:09:10;;;;;;;3.47;3.17;;;20.20;99.90;;;;;;5075497;28;20455;-86
2023/06/10 06:11:38;;;;;;;3.20;2.70;;;20.50;99.90;;;;;;5076452;28;20449;-85
2023/06/10 06:14:05;;;;;;;2.90;2.60;;;20.70;99.90;;;;;;5077695;28;20960;-85
2023/06/10 06:16:31;;;;;;;4.27;2.60;;;21.00;99.90;;;;;;5075741;28;20468;-86
2023/06/10 06:18:58;;;;;;;3.97;3.03;;;21.20;99.90;;;;;;5074793;28;20440;-86
2023/06/10 06:21:25;;;;;;;3.40;2.70;;;21.60;99.90;;;;;;5074620;28;20484;-85
2023/06/10 06:23:52;;;;;;;2.90;2.60;;;21.90;99.90;;;;;;5074110;28;20491;-85
2023/06/10 06:26:19;;;;;;;2.50;2.30;;;22.20;99.90;;;;;;5074702;28;20475;-86
2023/06/10 06:28:47;;;;;;;2.97;2.67;;;22.40;99.90;;;;;;5075319;28;20452;-86
2023/06/10 06:31:13;;;;;;;4.03;2.83;;;22.60;99.90;;;;;;5074644;28;20448;-85
2023/06/10 06:33:40;;;;;;;6.07;3.20;;;22.90;99.90;;;;;;5073921;28;20206;-84
2023/06/10 06:36:07;;;;;;;3.60;2.30;;;23.20;99.90;;;;;;5074130;28;20340;-85
2023/06/10 06:38:34;;;;;;;3.50;2.47;;;23.50;99.90;;;;;;5074356;28;20214;-85
2023/06/10 06:41:03;;;;;;;2.70;1.90;;;23.70;99.90;;;;;;5073149;28;20213;-85
2023/06/10 06:43:30;;;;;;;3.08;2.10;;;24.00;99.90;;;;;;5073626;28;20697;-85
2023/06/10 06:45:59;;;;;;;2.67;2.47;;;24.30;99.90;;;;;;5074134;28;20214;-86
2023/06/10 06:48:26;;;;;;;4.13;3.03;;;24.60;99.90;;;;;;5073625;28;20208;-86
2023/06/10 06:50:52;;;;;;;3.58;2.72;;;24.70;99.90;;;;;;5074078;28;20293;-86
2023/06/10 06:53:19;;;;;;;2.65;2.30;;;24.80;99.90;;;;;;5074325;28;20198;-85
2023/06/10 06:55:46;;;;;;;6.50;2.42;;;24.80;99.90;;;;;;5074128;28;20222;-85
2023/06/10 06:58:12;;;;;;;2.63;2.33;;;24.80;99.90;;;;;;5073883;28;20205;-85
2023/06/10 07:00:39;;;;;;;2.60;2.40;;;24.90;99.90;;;;;;5073892;28;20209;-85
2023/06/10 07:03:07;;;;;;;2.35;2.15;;;24.90;99.90;;;;;;5073719;28;20763;-85
2023/06/10 07:05:34;;;;;;;3.17;2.50;;;24.90;99.90;;;;;;5073672;28;20232;-86
2023/06/10 07:08:01;;;;;;;3.38;2.88;;;25.00;99.90;;;;;;5074009;28;20202;-84
2023/06/10 07:10:29;;;;;;;2.33;1.98;;;25.00;99.90;;;;;;5073706;28;20202;-85
2023/06/10 07:12:56;;;;;;;2.60;2.40;;;25.00;99.90;;;;;;5074022;28;20198;-86
2023/06/10 07:15:23;;;;;;;1.90;1.80;;;25.00;99.90;;;;;;5073360;28;20226;-86
2023/06/10 07:17:50;;;;;;;2.85;2.05;;;25.10;99.90;;;;;;5073537;28;20209;-86
2023/06/10 07:20:18;;;;;;;1.83;1.60;;;25.10;99.90;;;;;;5074365;28;20236;-87
2023/06/10 07:22:45;;;;;;;4.70;3.45;;;24.80;99.90;;;;;;5073545;28;20206;-86
2023/06/10 07:25:12;;;;;;;2.90;2.53;;;24.90;99.90;;;;;;5073775;28;20231;-85
2023/06/10 07:27:38;;;;;;;2.40;2.30;;;24.90;99.90;;;;;;5074444;28;20570;-85
2023/06/10 07:30:08;;;;;;;2.03;1.83;;;25.10;99.90;;;;;;5073556;28;20206;-86
2023/06/10 07:32:35;;;;;;;3.20;2.58;;;25.40;99.90;;;;;;5076978;28;20202;-86
2023/06/10 07:35:01;;;;;;;4.25;2.85;;;25.60;99.90;;;;;;5073246;28;20202;-86
2023/06/10 07:37:30;;;;;;;3.05;2.70;;;25.80;99.90;;;;;;5073511;28;20198;-86
2023/06/10 07:39:57;;;;;;;2.67;1.95;;;26.20;98.90;;;;;;5073446;28;20206;-86
2023/06/10 07:42:24;;;;;;;3.33;2.45;;;26.30;98.50;;;;;;5073493;28;20566;-86
2023/06/10 07:44:51;;;;;;;2.22;2.03;;;26.50;96.90;;;;;;5073142;28;20262;-87
2023/06/10 07:47:17;;;;;;;2.15;2.05;;;26.70;96.80;;;;;;5073031;28;20229;-84
2023/06/10 07:49:44;;;;;;;2.20;2.00;;;27.00;95.40;;;;;;5073433;28;20215;-87
2023/06/10 07:52:11;;;;;;;1.80;1.70;;;27.10;95.40;;;;;;5074383;28;20685;-87
2023/06/10 07:54:39;;;;;;;2.38;2.17;;;27.70;94.10;;;;;;5076814;28;20202;-86
2023/06/10 07:57:07;;;;;;;2.17;1.88;;;28.00;92.90;;;;;;5077060;28;20235;-86
2023/06/10 07:59:34;;;;;;;1.80;1.70;;;28.50;93.10;;;;;;5076848;28;20258;-87
2023/06/10 08:02:01;;;;;;;1.63;1.52;;;29.30;91.90;;;;;;5076647;28;20574;-86
2023/06/10 08:04:27;;;;;;;2.00;1.80;;;29.90;90.50;;;;;;5076574;28;20692;-86
2023/06/10 08:06:54;;;;;;;2.00;1.80;;;30.60;86.40;;;;;;5076410;28;20224;-86
2023/06/10 08:09:23;;;;;;;2.22;2.05;;;31.20;84.60;;;;;;5076299;28;20212;-86
2023/06/10 08:11:51;;;;;;;1.70;1.60;;;31.80;78.40;;;;;;5076452;28;20226;-90
2023/06/10 08:14:18;;;;;;;2.05;1.70;;;32.10;77.20;;;;;;5076264;28;20564;-87
2023/06/10 08:16:45;;;;;;;1.70;1.60;;;32.40;74.10;;;;;;5076450;28;20243;-86
2023/06/10 08:19:12;;;;;;;1.85;1.75;;;32.30;73.00;;;;;;5076392;28;20294;-85
2023/06/10 08:21:39;;;;;;;1.58;1.48;;;33.00;69.20;;;;;;5075991;28;20239;-86
2023/06/10 08:24:07;;;;;;;4.15;1.70;;;34.20;66.40;;;;;;5076223;28;20220;-86
2023/06/10 08:26:33;;;;;;;2.03;1.92;;;34.80;62.90;;;;;;5076180;28;20722;-87
2023/06/10 08:29:01;;;;;;;2.78;2.08;;;35.10;61.30;;;;;;5076202;28;20208;-88
2023/06/10 08:31:28;;;;;;;1.77;1.63;;;34.80;59.90;;;;;;5076366;28;20202;-86
2023/06/10 08:33:55;;;;;;;1.25;1.17;;;34.10;60.40;;;;;;5076043;28;20205;-86
2023/06/10 08:36:22;;;;;;;1.70;1.60;;;33.80;61.70;;;;;;5076002;28;20236;-87
2023/06/10 08:38:48;;;;;;;1.70;1.60;;;33.10;61.70;;;;;;5075921;28;20211;-85
2023/06/10 08:41:18;;;;;;;1.70;1.60;;;32.50;63.50;;;;;;5075744;28;20198;-86
2023/06/10 08:43:49;;;;;;;1.90;1.80;;;31.80;64.30;;;;;;5075661;28;20223;-86
2023/06/10 08:46:17;;;;;;;1.73;1.63;;;31.10;65.40;;;;;;5075825;28;20574;-87
2023/06/10 08:48:45;;;;;;;2.33;2.13;;;30.60;66.10;;;;;;5075810;28;20215;-87
2023/06/10 08:51:12;;;;;;;2.00;1.90;;;30.30;67.30;;;;;;5075337;28;20208;-87
2023/06/10 08:53:47;;;;;;;1.70;1.60;;;30.00;68.50;;;;;;5075301;28;20690;-87
2023/06/10 08:56:15;;;;;;;2.30;2.20;;;30.40;68.30;;;;;;5075894;28;20240;-87
2023/06/10 08:58:43;;;;;;;2.50;2.20;;;30.40;68.20;;;;;;5076082;28;20561;-87
2023/06/10 09:01:10;;;;;;;1.92;1.75;;;30.60;69.00;;;;;;5075479;28;20235;-86
2023/06/10 09:03:39;;;;;;;2.10;1.90;;;30.70;66.80;;;;;;5074443;28;20222;-85
2023/06/10 09:06:06;;;;;;;1.88;1.77;;;30.40;67.50;;;;;;5075223;28;20230;-87
2023/06/10 09:08:35;;;;;;;2.35;2.13;;;29.80;68.30;;;;;;5075378;28;20241;-88
2023/06/10 09:11:02;;;;;;;1.85;1.75;;;29.30;70.30;;;;;;5075264;28;20205;-86
2023/06/10 09:13:29;;;;;;;1.75;1.65;;;28.80;71.20;;;;;;5075150;28;20212;-85
2023/06/10 09:16:00;;;;;;;2.25;1.42;;;28.50;72.50;;;;;;5075047;28;20223;-86
2023/06/10 09:18:27;;;;;;;1.52;1.42;;;28.20;72.00;;;;;;5075172;28;20182;-87
2023/06/10 09:20:55;;;;;;;1.58;1.48;;;28.00;74.20;;;;;;5074873;28;20234;-86
2023/06/10 09:23:22;;;;;;;1.40;1.30;;;27.70;72.20;;;;;;5074678;28;20229;-87
2023/06/10 09:25:57;;;;;;;2.75;1.63;;;27.40;73.30;;;;;;5074951;28;20244;-87
2023/06/10 09:28:24;;;;;;;1.33;1.20;;;27.20;74.10;;;;;;5075207;28;20186;-86
2023/06/10 09:31:01;;;;;;;1.98;1.80;;;27.00;74.80;;;;;;5074753;28;20206;-85
2023/06/10 09:33:28;;;;;;;1.98;1.80;;;26.80;75.40;;;;;;5075014;28;20186;-86
2023/06/10 09:36:00;;;;;;;2.65;2.05;;;26.70;75.60;;;;;;5075012;28;20214;-85
2023/06/10 09:38:31;;;;;;;3.33;2.03;;;26.70;75.80;;;;;;5074617;28;20209;-84
2023/06/10 09:40:58;;;;;;;1.55;1.45;;;26.90;76.50;;;;;;5074802;28;20186;-85
2023/06/10 09:43:40;;;;;;;1.60;1.50;;;27.00;76.30;;;;;;5074145;28;20225;-85
2023/06/10 09:46:06;;;;;;;2.38;2.17;;;27.10;75.90;;;;;;5074395;28;20218;-85
2023/06/10 09:48:36;;;;;;;2.45;2.25;;;27.20;75.80;;;;;;5074464;28;20201;-85
2023/06/10 09:51:09;;;;;;;1.63;1.52;;;27.30;76.90;;;;;;5074381;28;20251;-85
2023/06/10 09:53:36;;;;;;;2.92;2.15;;;27.40;77.50;;;;;;5074660;28;20191;-85
2023/06/10 09:56:03;;;;;;;1.95;1.85;;;27.50;76.60;;;;;;5073894;28;20735;-85
2023/06/10 09:58:37;;;;;;;2.45;2.30;;;27.70;77.00;;;;;;5074367;28;20202;-86
2023/06/10 10:01:09;;;;;;;3.20;2.47;;;27.90;76.40;;;;;;5074154;28;20204;-85
2023/06/10 10:03:45;;;;;;;2.28;2.08;;;27.80;76.00;;;;;;5073798;28;20222;-85
2023/06/10 10:06:14;;;;;;;2.28;1.90;;;27.70;77.00;;;;;;5073744;28;20232;-83
2023/06/10 10:08:40;;;;;;;2.00;1.90;;;27.70;76.40;;;;;;5074009;28;20252;-85
2023/06/10 10:11:07;;;;;;;2.38;2.20;;;27.60;75.90;;;;;;5074223;28;20201;-85
2023/06/10 10:13:35;;;;;;;2.15;1.85;;;27.30;77.40;;;;;;5074126;28;20220;-85
2023/06/10 10:16:07;;;;;;;2.45;2.28;;;27.20;77.60;;;;;;5073673;28;20218;-84
2023/06/10 10:18:36;;;;;;;2.53;2.33;;;27.20;77.90;;;;;;5074105;28;20186;-84
2023/06/10 10:21:07;;;;;;;2.38;2.15;;;27.20;76.50;;;;;;5073398;28;20260;-84
2023/06/10 10:23:44;;;;;;;2.75;2.22;;;27.20;76.50;;;;;;5073989;28;20568;-85
2023/06/10 10:26:11;;;;;;;2.03;1.92;;;27.10;76.70;;;;;;5074003;28;20228;-86
2023/06/10 10:28:42;;;;;;;2.22;2.03;;;27.00;77.40;;;;;;5074024;28;20201;-86
2023/06/10 10:31:11;;;;;;;2.67;2.35;;;27.30;76.30;;;;;;5074216;28;20558;-86
2023/06/10 10:33:49;;;;;;;1.73;1.60;;;27.30;74.80;;;;;;5073573;28;20666;-86
2023/06/10 10:36:16;;;;;;;1.75;1.65;;;27.50;75.60;;;;;;5073822;28;20225;-85
2023/06/10 10:38:48;;;;;;;2.22;2.05;;;27.60;74.30;;;;;;5073807;28;20202;-84
2023/06/10 10:41:15;;;;;;;1.67;1.58;;;27.60;74.10;;;;;;5073799;28;20186;-86
2023/06/10 10:43:44;;;;;;;2.65;2.45;;;27.60;73.90;;;;;;5073505;28;20222;-85
2023/06/10 10:46:13;;;;;;;2.40;2.20;;;27.50;75.00;;;;;;5073090;28;20724;-86
2023/06/10 10:48:41;;;;;;;1.60;1.50;;;27.80;75.30;;;;;;5073566;28;20579;-85
2023/06/10 10:51:08;;;;;;;2.10;2.00;;;28.00;73.60;;;;;;5073489;28;20199;-87
2023/06/10 10:53:37;;;;;;;2.13;2.00;;;28.00;74.30;;;;;;5073414;28;20198;-85
2023/06/10 10:56:08;;;;;;;5.63;2.08;;;28.10;74.50;;;;;;5073224;28;20226;-85
2023/06/10 10:58:35;;;;;;;2.63;2.42;;;28.30;74.00;;;;;;5074452;28;20202;-86
2023/06/10 11:01:12;;;;;;;2.22;2.05;;;28.10;73.00;;;;;;5073374;28;20202;-82
2023/06/10 11:03:45;;;;;;;1.70;1.60;;;27.80;71.80;;;;;;5074046;28;20250;-85
2023/06/10 11:06:15;;;;;;;2.15;2.03;;;27.60;73.30;;;;;;5073333;28;20226;-85
2023/06/10 11:08:48;;;;;;;1.80;1.70;;;27.60;73.60;;;;;;5073335;28;20190;-85
2023/06/10 11:11:25;;;;;;;2.17;2.08;;;27.40;74.20;;;;;;5073345;28;20190;-86
2023/06/10 11:14:26;;;;;;;2.80;2.17;;;27.10;76.10;;;;;;5073109;28;20642;-86
2023/06/10 11:16:55;;;;;;;1.73;1.63;;;27.20;74.80;;;;;;5065402;28;20229;-85
2023/06/10 11:19:35;;;;;;;1.73;1.50;;;27.30;72.80;;;;;;5073105;28;20400;-86
2023/06/10 11:22:03;;;;;;;2.50;2.40;;;27.40;73.30;;;;;;5072930;28;20744;-88
2023/06/10 11:24:31;;;;;;;1.70;1.60;;;27.40;71.40;;;;;;5073144;28;20225;-85
2023/06/10 11:27:17;;;;;;;1.58;1.48;;;27.40;71.20;;;;;;5073766;28;20210;-85
2023/06/10 11:30:18;;;;;;;2.15;1.95;;;27.40;73.00;;;;;;5076847;28;20182;-85
2023/06/10 11:32:45;;;;;;;2.05;1.95;;;27.60;72.90;;;;;;5077116;28;20187;-86
2023/06/10 11:35:13;;;;;;;3.15;2.45;;;27.60;70.80;;;;;;5077175;28;20190;-85
2023/06/10 11:37:40;;;;;;;2.85;2.10;;;27.60;71.40;;;;;;5076984;28;20253;-86
2023/06/10 11:40:08;;;;;;;2.63;2.42;;;27.60;72.00;;;;;;5076681;28;20692;-86
2023/06/10 11:42:41;;;;;;;2.03;1.75;;;27.70;72.10;;;;;;5076757;28;20693;-85
2023/06/10 11:45:09;;;;;;;5.05;2.45;;;27.80;73.30;;;;;;5076767;28;20214;-86
2023/06/10 11:47:36;;;;;;;1.98;1.88;;;27.80;72.90;;;;;;5076495;28;20668;-86
2023/06/10 11:50:03;;;;;;;2.15;1.95;;;27.60;71.80;;;;;;5076665;28;20225;-85
2023/06/10 11:52:31;;;;;;;2.25;1.63;;;27.60;74.30;;;;;;5076656;28;20208;-86
2023/06/10 11:54:58;;;;;;;2.15;1.95;;;27.60;71.90;;;;;;5076556;28;20201;-86
2023/06/10 11:57:25;;;;;;;1.83;1.73;;;27.70;70.40;;;;;;5076550;28;20218;-85
2023/06/10 11:59:53;;;;;;;2.38;2.20;;;27.60;69.10;;;;;;5076564;28;20206;-86
2023/06/10 12:02:22;;;;;;;2.15;1.95;;;27.40;72.20;;;;;;5076475;28;20197;-85
2023/06/10 12:04:48;;;;;;;2.15;2.05;;;27.30;72.90;;;;;;5076289;28;20222;-86
2023/06/10 12:07:19;;;;;;;2.72;2.55;;;27.20;73.10;;;;;;5076248;28;20226;-86
2023/06/10 12:09:46;;;;;;;2.65;1.83;;;27.10;73.60;;;;;;5076553;28;20615;-87
2023/06/10 12:12:13;;;;;;;2.30;2.20;;;27.10;72.80;;;;;;5076467;28;20209;-86
2023/06/10 12:14:56;;;;;;;2.67;2.42;;;27.10;73.60;;;;;;5076597;28;20198;-86
2023/06/10 12:17:24;;;;;;;2.08;1.98;;;27.20;70.60;;;;;;5076234;28;20245;-86
2023/06/10 12:19:51;;;;;;;2.20;2.00;;;27.10;70.50;;;;;;5076369;28;20202;-87
2023/06/10 12:22:19;;;;;;;1.98;1.88;;;27.00;71.00;;;;;;5075984;28;20237;-85
2023/06/10 12:24:46;;;;;;;2.35;2.15;;;26.90;71.70;;;;;;5076252;28;20236;-86
2023/06/10 12:27:13;;;;;;;3.03;2.25;;;26.90;72.30;;;;;;5076023;28;20226;-87
2023/06/10 12:29:51;;;;;;;2.13;1.95;;;26.90;74.00;;;;;;5075832;28;20252;-87
2023/06/10 12:32:20;;;;;;;2.00;1.90;;;27.00;73.90;;;;;;5075794;28;20201;-86
2023/06/10 12:34:47;;;;;;;2.67;2.15;;;27.30;74.30;;;;;;5076048;28;20244;-87
2023/06/10 12:37:14;;;;;;;3.05;2.75;;;27.40;73.40;;;;;;5075662;28;20647;-87
2023/06/10 12:39:41;;;;;;;2.20;2.00;;;27.50;73.20;;;;;;5074144;28;20693;-87
2023/06/10 12:42:10;;;;;;;2.35;2.00;;;27.40;72.60;;;;;;5076018;28;20682;-87
2023/06/10 12:44:40;;;;;;;2.15;1.95;;;27.50;73.00;;;;;;5075652;28;20587;-88
2023/06/10 12:47:12;;;;;;;3.90;2.13;;;27.50;72.80;;;;;;5075683;28;20311;-87
2023/06/10 12:49:40;;;;;;;2.42;2.22;;;27.50;72.60;;;;;;5076047;28;20623;-87
2023/06/10 12:52:07;;;;;;;2.00;1.88;;;27.40;72.90;;;;;;5076328;28;20212;-88